createdAt,value
2018-03-19T00:01:36.867Z,51.10
2018-03-19T00:04:03.870Z,50.80
2018-03-19T00:06:30.168Z,50.80
2018-03-19T00:08:57.174Z,50.80
2018-03-19T00:11:23.454Z,50.80
2018-03-19T00:13:50.403Z,51.00
2018-03-19T00:16:16.630Z,50.90
2018-03-19T00:18:42.906Z,51.30
2018-03-19T00:21:09.125Z,51.30
2018-03-19T00:23:36.366Z,51.50
2018-03-19T00:26:02.611Z,51.40
2018-03-19T00:28:28.828Z,51.00
2018-03-19T00:30:55.076Z,51.10
2018-03-19T00:33:21.406Z,51.70
2018-03-19T00:35:47.677Z,51.70
2018-03-19T00:38:13.957Z,52.00
2018-03-19T00:40:40.557Z,51.90
2018-03-19T00:43:06.843Z,52.40
2018-03-19T00:45:33.838Z,51.90
2018-03-19T00:48:00.119Z,51.90
2018-03-19T00:50:26.360Z,52.20
2018-03-19T00:52:52.639Z,52.30
2018-03-19T00:55:19.597Z,51.60
2018-03-19T00:57:46.582Z,51.70
2018-03-19T01:00:12.856Z,51.70
2018-03-19T01:02:39.116Z,51.50
2018-03-19T01:05:06.162Z,52.40
2018-03-19T01:07:38.123Z,52.40
2018-03-19T01:10:04.408Z,52.90
2018-03-19T01:12:31.425Z,52.60
2018-03-19T01:14:57.759Z,52.50
2018-03-19T01:17:23.974Z,52.80
2018-03-19T01:19:50.206Z,52.40
2018-03-19T01:22:34.094Z,52.80
2018-03-19T01:25:00.301Z,52.90
2018-03-19T01:27:27.289Z,53.50
2018-03-19T01:29:53.515Z,53.50
2018-03-19T01:32:19.783Z,53.40
2018-03-19T01:34:46.788Z,53.40
2018-03-19T01:37:13.805Z,53.30
2018-03-19T01:39:40.134Z,53.20
2018-03-19T01:42:06.471Z,53.40
2018-03-19T01:44:32.703Z,53.40
2018-03-19T01:46:58.969Z,53.60
2018-03-19T01:49:25.259Z,53.70
2018-03-19T01:51:52.234Z,53.60
2018-03-19T01:54:19.226Z,53.40
2018-03-19T01:56:48.641Z,53.30
2018-03-19T01:59:14.941Z,53.70
2018-03-19T02:01:41.165Z,53.50
2018-03-19T02:04:08.184Z,53.40
2018-03-19T02:06:34.405Z,53.80
2018-03-19T02:09:06.845Z,53.80
2018-03-19T02:11:33.109Z,53.50
2018-03-19T02:14:00.128Z,53.40
2018-03-19T02:16:26.384Z,53.40
2018-03-19T02:18:52.722Z,53.50
2018-03-19T02:21:18.990Z,53.00
2018-03-19T02:23:47.032Z,53.00
2018-03-19T02:26:13.351Z,52.90
2018-03-19T02:28:39.652Z,53.00
2018-03-19T02:31:07.734Z,53.40
2018-03-19T02:33:34.022Z,53.40
2018-03-19T02:36:00.296Z,53.70
2018-03-19T02:38:26.549Z,54.10
2018-03-19T02:40:52.778Z,54.50
2018-03-19T02:43:19.053Z,54.70
2018-03-19T02:45:46.057Z,53.90
2018-03-19T02:48:12.278Z,53.90
2018-03-19T02:50:38.570Z,53.80
2018-03-19T02:53:04.817Z,54.10
2018-03-19T02:55:31.071Z,54.00
2018-03-19T02:57:57.327Z,54.20
2018-03-19T03:00:24.420Z,54.00
2018-03-19T03:02:50.749Z,54.00
2018-03-19T03:05:16.998Z,54.20
2018-03-19T03:07:43.269Z,54.30
2018-03-19T03:10:09.611Z,54.30
2018-03-19T03:12:36.077Z,55.60
2018-03-19T03:15:03.393Z,55.00
2018-03-19T03:17:29.655Z,54.80
2018-03-19T03:19:55.920Z,54.70
2018-03-19T03:22:22.162Z,55.00
2018-03-19T03:24:48.411Z,54.70
2018-03-19T03:27:14.654Z,55.10
2018-03-19T03:29:41.216Z,54.90
2018-03-19T03:32:08.257Z,55.40
2018-03-19T03:34:34.539Z,55.30
2018-03-19T03:37:00.763Z,55.20
2018-03-19T03:39:27.789Z,54.50
2018-03-19T03:41:54.031Z,54.50
2018-03-19T03:44:20.286Z,55.10
2018-03-19T03:46:46.910Z,55.40
2018-03-19T03:49:17.535Z,55.80
2018-03-19T03:51:43.939Z,55.80
2018-03-19T03:54:11.299Z,56.30
2018-03-19T03:56:38.357Z,56.30
2018-03-19T03:59:04.596Z,56.30
2018-03-19T04:01:30.858Z,56.60
2018-03-19T04:03:57.905Z,56.70
2018-03-19T04:06:24.198Z,56.60
2018-03-19T04:08:50.676Z,56.80
2018-03-19T04:11:18.951Z,56.70
2018-03-19T04:13:45.314Z,57.00
2018-03-19T04:16:11.588Z,57.00
2018-03-19T04:18:37.895Z,57.00
2018-03-19T04:21:04.183Z,57.30
2018-03-19T04:23:30.423Z,57.70
2018-03-19T04:25:56.721Z,57.90
2018-03-19T04:28:22.979Z,58.40
2018-03-19T04:30:50.019Z,58.40
2018-03-19T04:33:16.253Z,58.40
2018-03-19T04:35:42.563Z,58.30
2018-03-19T04:38:08.978Z,57.80
2018-03-19T04:40:36.193Z,56.70
2018-03-19T04:43:02.473Z,56.70
2018-03-19T04:45:28.721Z,56.40
2018-03-19T04:47:55.746Z,57.00
2018-03-19T04:50:22.016Z,56.90
2018-03-19T04:52:49.039Z,57.10
2018-03-19T04:55:15.529Z,57.10
2018-03-19T04:57:42.952Z,56.80
2018-03-19T05:00:09.238Z,56.80
2018-03-19T05:02:36.396Z,57.20
2018-03-19T05:05:03.555Z,57.50
2018-03-19T05:07:30.589Z,58.10
2018-03-19T05:09:56.927Z,58.00
2018-03-19T05:15:15.651Z,58.60
2018-03-19T05:17:41.949Z,59.00
2018-03-19T05:20:08.229Z,59.10
2018-03-19T05:22:34.460Z,59.70
2018-03-19T05:25:00.700Z,61.60
2018-03-19T05:27:27.046Z,61.60
2018-03-19T05:29:53.273Z,61.70
2018-03-19T05:32:19.504Z,62.10
2018-03-19T05:34:45.732Z,62.60
2018-03-19T05:37:12.296Z,63.30
2018-03-19T05:39:39.085Z,63.40
2018-03-19T05:42:05.269Z,63.30
2018-03-19T05:44:31.549Z,63.70
2018-03-19T05:46:57.828Z,63.40
2018-03-19T05:49:24.825Z,62.80
2018-03-19T05:51:51.142Z,62.70
2018-03-19T05:54:22.386Z,62.00
2018-03-19T05:56:48.623Z,61.90
2018-03-19T05:59:15.788Z,62.80
2018-03-19T06:01:42.058Z,62.60
2018-03-19T06:04:08.316Z,62.30
2018-03-19T06:06:34.728Z,62.40
2018-03-19T06:09:01.676Z,62.00
2018-03-19T06:11:27.963Z,62.00
2018-03-19T06:13:54.216Z,62.00
2018-03-19T06:16:20.441Z,59.30
2018-03-19T06:18:46.700Z,58.70
2018-03-19T06:21:12.966Z,58.60
2018-03-19T06:23:39.180Z,58.30
2018-03-19T06:26:05.431Z,58.20
2018-03-19T06:28:31.679Z,58.10
2018-03-19T06:30:57.915Z,58.20
2018-03-19T06:33:24.895Z,57.90
2018-03-19T06:35:51.839Z,57.60
2018-03-19T06:38:18.073Z,57.50
2018-03-19T06:40:44.326Z,55.40
2018-03-19T06:43:11.464Z,54.00
2018-03-19T06:45:37.717Z,51.90
2018-03-19T06:48:04.720Z,46.20
2018-03-19T06:50:31.705Z,43.60
2018-03-19T06:52:57.971Z,43.50
2018-03-19T06:55:24.261Z,42.20
2018-03-19T06:57:51.235Z,40.10
2018-03-19T07:00:17.512Z,40.10
2018-03-19T07:02:47.975Z,39.40
2018-03-19T07:05:14.581Z,40.10
2018-03-19T07:07:40.866Z,38.50
2018-03-19T07:10:07.272Z,37.80
2018-03-19T07:12:33.546Z,38.00
2018-03-19T07:14:59.781Z,39.50
2018-03-19T07:17:26.056Z,39.70
2018-03-19T07:19:53.065Z,38.90
2018-03-19T07:22:19.355Z,38.90
2018-03-19T07:24:46.379Z,39.70
2018-03-19T07:27:12.670Z,39.70
2018-03-19T07:29:38.958Z,39.70
2018-03-19T07:32:06.109Z,39.70
2018-03-19T07:34:32.404Z,39.60
2018-03-19T07:36:58.662Z,40.40
2018-03-19T07:39:24.957Z,40.00
2018-03-19T07:41:51.932Z,41.30
2018-03-19T07:44:18.308Z,41.30
2018-03-19T07:46:45.304Z,41.30
2018-03-19T07:49:11.581Z,41.20
2018-03-19T07:51:38.601Z,40.40
2018-03-19T07:54:04.851Z,40.40
2018-03-19T07:56:31.172Z,39.80
2018-03-19T07:58:57.414Z,40.00
2018-03-19T08:01:23.685Z,40.80
2018-03-19T08:03:49.906Z,39.80
2018-03-19T08:06:16.151Z,39.10
2018-03-19T08:08:42.978Z,39.90
2018-03-19T08:11:14.661Z,40.00
2018-03-19T08:13:41.136Z,44.30
2018-03-19T08:16:07.432Z,37.20
2018-03-19T08:18:33.867Z,35.90
2018-03-19T08:21:00.083Z,36.30
2018-03-19T08:23:26.330Z,37.10
2018-03-19T08:25:59.668Z,36.40
2018-03-19T08:28:25.903Z,39.80
2018-03-19T08:30:52.861Z,36.60
2018-03-19T08:33:19.883Z,36.20
2018-03-19T08:35:47.051Z,36.30
2018-03-19T08:38:13.230Z,36.40
2018-03-19T08:40:39.484Z,36.60
2018-03-19T08:43:05.681Z,36.20
2018-03-19T08:45:31.883Z,35.70
2018-03-19T08:48:04.448Z,36.30
2018-03-19T08:50:30.709Z,36.10
2018-03-19T08:52:57.004Z,36.70
2018-03-19T08:55:23.278Z,39.10
2018-03-19T08:57:49.533Z,36.80
2018-03-19T09:00:16.241Z,36.50
2018-03-19T09:02:43.247Z,36.70
2018-03-19T09:05:09.460Z,36.70
2018-03-19T09:07:37.565Z,36.30
2018-03-19T09:10:03.882Z,36.30
2018-03-19T09:12:38.718Z,36.10
2018-03-19T09:15:04.888Z,36.00
2018-03-19T09:17:31.119Z,36.50
2018-03-19T09:19:57.374Z,36.50
2018-03-19T09:22:23.631Z,36.30
2018-03-19T09:24:49.897Z,35.70
2018-03-19T09:27:16.115Z,36.70
2018-03-19T09:29:42.416Z,37.60
2018-03-19T09:32:08.704Z,37.10
2018-03-19T09:34:34.919Z,36.00
2018-03-19T09:37:01.245Z,35.40
2018-03-19T09:39:27.496Z,35.30
2018-03-19T09:41:53.826Z,36.90
2018-03-19T09:44:20.217Z,37.70
2018-03-19T09:46:46.813Z,37.80
2018-03-19T09:49:13.879Z,37.10
2018-03-19T09:51:41.147Z,36.00
2018-03-19T09:54:07.710Z,36.60
2018-03-19T09:56:34.033Z,38.10
2018-03-19T09:59:02.342Z,35.30
2018-03-19T10:01:28.694Z,35.30
2018-03-19T10:03:55.044Z,35.60
2018-03-19T10:06:21.408Z,36.60
2018-03-19T10:08:48.793Z,37.30
2018-03-19T10:11:15.148Z,36.80
2018-03-19T10:13:41.872Z,36.40
2018-03-19T10:16:08.231Z,35.80
2018-03-19T10:18:34.530Z,35.90
2018-03-19T10:21:00.825Z,34.70
2018-03-19T10:23:27.088Z,36.30
2018-03-19T10:25:54.148Z,35.70
2018-03-19T10:28:21.168Z,35.90
2018-03-19T10:30:47.491Z,35.90
2018-03-19T10:33:13.990Z,35.90
2018-03-19T10:35:42.133Z,36.50
2018-03-19T10:38:09.221Z,36.00
2018-03-19T10:40:35.531Z,35.90
2018-03-19T10:43:01.896Z,37.90
2018-03-19T10:45:28.319Z,37.30
2018-03-19T10:47:54.609Z,37.40
2018-03-19T10:50:23.114Z,37.80
2018-03-19T10:52:49.491Z,37.80
2018-03-19T10:55:15.967Z,38.10
2018-03-19T10:57:42.821Z,38.30
2018-03-19T11:00:13.289Z,38.50
2018-03-19T11:02:46.076Z,37.10
2018-03-19T11:05:18.691Z,36.30
2018-03-19T11:07:45.755Z,38.50
2018-03-19T11:10:13.163Z,38.10
2018-03-19T11:12:43.592Z,38.00
2018-03-19T11:15:11.448Z,35.60
2018-03-19T11:17:39.169Z,36.60
2018-03-19T11:20:06.910Z,36.00
2018-03-19T11:22:33.200Z,37.00
2018-03-19T11:24:59.512Z,37.40
2018-03-19T11:27:25.789Z,39.10
2018-03-19T11:29:52.052Z,38.40
2018-03-19T11:32:19.094Z,37.70
2018-03-19T11:34:46.015Z,37.70
2018-03-19T11:37:12.807Z,36.70
2018-03-19T11:39:40.419Z,37.20
2018-03-19T11:42:07.752Z,37.80
2018-03-19T11:44:37.734Z,38.40
2018-03-19T11:47:04.473Z,38.40
2018-03-19T11:49:30.866Z,38.10
2018-03-19T11:51:57.165Z,38.30
2018-03-19T11:54:23.485Z,37.80
2018-03-19T11:56:51.040Z,39.00
2018-03-19T11:59:17.361Z,39.00
2018-03-19T12:01:44.213Z,38.60
2018-03-19T12:04:11.533Z,39.00
2018-03-19T12:06:37.924Z,37.50
2018-03-19T12:09:04.649Z,38.00
2018-03-19T12:11:30.980Z,46.00
2018-03-19T12:13:57.368Z,38.50
2018-03-19T12:16:23.772Z,35.70
2018-03-19T12:18:50.119Z,35.00
2018-03-19T12:21:17.398Z,35.70
2018-03-19T12:23:55.302Z,36.80
2018-03-19T12:26:21.629Z,37.30
2018-03-19T12:28:48.912Z,37.20
2018-03-19T12:31:15.470Z,36.10
2018-03-19T12:33:41.918Z,36.30
2018-03-19T12:36:12.718Z,35.40
2018-03-19T12:38:39.107Z,36.20
2018-03-19T12:41:16.144Z,37.80
2018-03-19T12:43:42.784Z,37.70
2018-03-19T12:46:09.164Z,36.70
2018-03-19T12:48:36.173Z,38.50
2018-03-19T12:51:02.536Z,38.50
2018-03-19T12:53:28.815Z,38.60
2018-03-19T12:55:55.189Z,38.50
2018-03-19T12:58:21.499Z,37.70
2018-03-19T13:00:47.893Z,38.80
2018-03-19T13:03:14.238Z,39.50
2018-03-19T13:05:40.826Z,38.10
2018-03-19T13:08:07.342Z,38.00
2018-03-19T13:10:33.674Z,41.90
2018-03-19T13:13:00.810Z,36.00
2018-03-19T13:15:27.144Z,35.90
2018-03-19T13:18:07.525Z,36.20
2018-03-19T13:20:33.823Z,37.70
2018-03-19T13:23:00.085Z,37.20
2018-03-19T13:25:27.121Z,37.20
2018-03-19T13:27:53.341Z,37.20
2018-03-19T13:30:20.736Z,38.20
2018-03-19T13:32:47.070Z,37.90
2018-03-19T13:35:14.382Z,37.00
2018-03-19T13:37:45.240Z,37.40
2018-03-19T13:40:11.653Z,38.20
2018-03-19T13:42:38.789Z,38.60
2018-03-19T13:45:04.996Z,38.60
2018-03-19T13:47:43.507Z,39.50
2018-03-19T13:50:09.773Z,36.20
2018-03-19T13:52:36.050Z,36.90
2018-03-19T13:55:02.345Z,36.50
2018-03-19T13:57:28.626Z,37.10
2018-03-19T14:00:01.524Z,37.20
2018-03-19T14:02:27.871Z,37.80
2018-03-19T14:04:54.116Z,38.30
2018-03-19T14:07:35.940Z,38.90
2018-03-19T14:10:07.916Z,40.70
2018-03-19T14:12:34.916Z,37.70
2018-03-19T14:15:01.224Z,37.70
2018-03-19T14:17:29.275Z,38.40
2018-03-19T14:19:55.539Z,38.40
2018-03-19T14:22:28.053Z,37.10
2018-03-19T14:24:55.421Z,37.70
2018-03-19T14:27:21.762Z,38.90
2018-03-19T14:29:51.770Z,38.50
2018-03-19T14:32:18.813Z,38.00
2018-03-19T14:34:45.210Z,38.60
2018-03-19T14:37:11.921Z,39.00
2018-03-19T14:39:38.416Z,37.70
2018-03-19T14:42:04.684Z,38.30
2018-03-19T14:44:30.948Z,39.10
2018-03-19T14:47:12.540Z,38.80
2018-03-19T14:49:40.214Z,39.10
2018-03-19T14:52:13.509Z,39.60
2018-03-19T14:54:39.977Z,39.00
2018-03-19T14:57:06.252Z,39.00
2018-03-19T14:59:34.612Z,38.80
2018-03-19T15:02:11.137Z,39.50
2018-03-19T15:04:37.622Z,39.90
2018-03-19T15:07:03.888Z,40.30
2018-03-19T15:09:32.952Z,40.40
2018-03-19T15:11:59.181Z,40.40
2018-03-19T15:14:25.399Z,41.10
2018-03-19T15:16:51.718Z,40.10
2018-03-19T15:19:18.213Z,40.60
2018-03-19T15:21:45.516Z,40.90
2018-03-19T15:24:12.028Z,40.10
2018-03-19T15:26:38.523Z,39.20
2018-03-19T15:29:04.786Z,39.80
2018-03-19T15:31:31.042Z,40.40
2018-03-19T15:33:57.355Z,39.70
2018-03-19T15:36:24.558Z,40.50
2018-03-19T15:38:50.948Z,40.40
2018-03-19T15:41:20.468Z,41.00
2018-03-19T15:43:47.001Z,41.30
2018-03-19T15:46:13.382Z,41.40
2018-03-19T15:48:43.445Z,42.60
2018-03-19T15:51:09.703Z,42.20
2018-03-19T15:53:36.054Z,42.30
2018-03-19T15:56:02.373Z,41.30
2018-03-19T15:58:29.454Z,41.30
2018-03-19T16:00:55.817Z,41.40
2018-03-19T16:03:22.165Z,42.10
2018-03-19T16:05:48.447Z,42.50
2018-03-19T16:08:14.732Z,41.70
2018-03-19T16:10:41.309Z,41.60
2018-03-19T16:13:08.340Z,41.50
2018-03-19T16:15:35.340Z,41.60
2018-03-19T16:18:02.340Z,41.40
2018-03-19T16:20:28.669Z,41.40
2018-03-19T16:22:55.054Z,41.60
2018-03-19T16:25:21.460Z,41.50
2018-03-19T16:27:55.204Z,42.20
2018-03-19T16:30:21.949Z,43.00
2018-03-19T16:32:50.124Z,42.90
2018-03-19T16:35:17.865Z,43.00
2018-03-19T16:37:44.982Z,42.40
2018-03-19T16:40:11.710Z,42.30
2018-03-19T16:42:46.045Z,42.40
2018-03-19T16:45:12.430Z,42.10
2018-03-19T16:47:41.633Z,42.90
2018-03-19T16:50:13.037Z,42.90
2018-03-19T16:52:40.238Z,43.10
2018-03-19T16:55:06.508Z,42.90
2018-03-19T16:57:36.326Z,43.80
2018-03-19T17:00:02.744Z,43.50
2018-03-19T17:02:29.090Z,43.40
2018-03-19T17:04:55.420Z,42.70
2018-03-19T17:07:27.446Z,42.60
2018-03-19T17:09:53.741Z,42.60
2018-03-19T17:12:20.025Z,43.50
2018-03-19T17:14:46.469Z,43.10
2018-03-19T17:17:13.555Z,42.70
2018-03-19T17:19:40.954Z,43.00
2018-03-19T17:22:18.063Z,43.00
2018-03-19T17:24:45.632Z,42.60
2018-03-19T17:27:12.626Z,42.40
2018-03-19T17:29:41.152Z,43.30
2018-03-19T17:32:07.671Z,43.30
2018-03-19T17:34:34.156Z,43.80
2018-03-19T17:37:08.967Z,43.30
2018-03-19T17:39:35.300Z,43.50
2018-03-19T17:42:02.376Z,42.70
2018-03-19T17:44:41.074Z,42.70
2018-03-19T17:47:08.295Z,43.00
2018-03-19T17:49:37.785Z,43.80
2018-03-19T17:52:04.037Z,43.80
2018-03-19T17:54:32.055Z,43.80
2018-03-19T17:56:58.479Z,43.00
2018-03-19T17:59:39.752Z,43.00
2018-03-19T18:02:06.088Z,43.10
2018-03-19T18:04:32.484Z,42.70
2018-03-19T18:07:00.963Z,42.40
2018-03-19T18:09:34.360Z,42.60
2018-03-19T18:12:06.747Z,42.00
2018-03-19T18:14:33.872Z,42.40
2018-03-19T18:17:00.979Z,42.40
2018-03-19T18:19:28.250Z,42.70
2018-03-19T18:21:58.699Z,42.70
2018-03-19T18:24:25.157Z,43.00
2018-03-19T18:26:53.446Z,42.00
2018-03-19T18:29:25.007Z,42.00
2018-03-19T18:31:51.370Z,42.80
2018-03-19T18:34:19.977Z,43.10
2018-03-19T18:36:47.836Z,43.70
2018-03-19T18:39:20.376Z,43.90
2018-03-19T18:41:47.150Z,43.00
2018-03-19T18:44:14.979Z,43.70
2018-03-19T18:46:41.733Z,43.70
2018-03-19T18:49:12.594Z,43.10
2018-03-19T18:54:20.807Z,43.90
2018-03-19T18:56:48.194Z,43.90
2018-03-19T18:59:16.334Z,43.70
2018-03-19T19:01:43.963Z,43.30
2018-03-19T19:04:10.444Z,43.10
2018-03-19T19:06:42.110Z,43.10
2018-03-19T19:09:10.014Z,43.10
2018-03-19T19:11:36.905Z,43.50
2018-03-19T19:14:04.300Z,44.10
2018-03-19T19:16:31.026Z,44.10
2018-03-19T19:18:57.371Z,45.00
2018-03-19T19:21:25.807Z,45.60
2018-03-19T19:23:58.484Z,45.70
2018-03-19T19:26:28.742Z,45.70
2018-03-19T19:28:58.243Z,45.50
2018-03-19T19:31:24.670Z,45.60
2018-03-19T19:33:51.026Z,45.60
2018-03-19T19:36:18.725Z,45.50
2018-03-19T19:38:47.095Z,45.40
2018-03-19T19:41:15.953Z,46.10
2018-03-19T19:43:42.931Z,46.10
2018-03-19T19:46:11.757Z,46.20
2018-03-19T19:48:38.387Z,46.10
2018-03-19T19:51:04.730Z,45.90
2018-03-19T19:53:31.264Z,45.90
2018-03-19T19:55:57.621Z,46.00
2018-03-19T19:58:23.916Z,46.20
2018-03-19T20:00:58.654Z,46.70
2018-03-19T20:03:25.652Z,47.70
2018-03-19T20:05:52.334Z,47.60
2018-03-19T20:08:18.714Z,48.30
2018-03-19T20:10:46.256Z,49.20
2018-03-19T20:13:14.069Z,50.70
2018-03-19T20:15:40.556Z,50.60
2018-03-19T20:18:07.059Z,51.30
2018-03-19T20:20:35.406Z,51.60
2018-03-19T20:23:01.707Z,51.90
2018-03-19T20:25:28.090Z,52.30
2018-03-19T20:27:54.430Z,52.50
2018-03-19T20:30:20.760Z,52.70
2018-03-19T20:32:47.510Z,52.80
2018-03-19T20:35:13.988Z,53.20
2018-03-19T20:37:41.947Z,53.40
2018-03-19T20:40:10.370Z,53.40
2018-03-19T20:42:44.449Z,53.60
2018-03-19T20:45:13.501Z,53.30
2018-03-19T20:47:41.574Z,53.40
2018-03-19T20:50:08.756Z,53.60
2018-03-19T20:52:40.623Z,53.60
2018-03-19T20:55:10.087Z,54.40
2018-03-19T20:57:36.713Z,54.30
2018-03-19T21:00:04.060Z,54.80
2018-03-19T21:02:31.228Z,54.90
2018-03-19T21:05:04.748Z,54.80
2018-03-19T21:07:31.813Z,55.00
2018-03-19T21:10:02.051Z,55.40
2018-03-19T21:12:31.258Z,56.10
2018-03-19T21:14:58.496Z,55.80
2018-03-19T21:17:24.942Z,55.80
2018-03-19T21:19:52.366Z,55.70
2018-03-19T21:22:21.619Z,55.60
2018-03-19T21:24:51.548Z,55.60
2018-03-19T21:27:17.990Z,55.60
2018-03-19T21:29:45.969Z,55.80
2018-03-19T21:32:14.541Z,56.00
2018-03-19T21:34:42.358Z,56.00
2018-03-19T21:37:11.718Z,56.30
2018-03-19T21:39:42.139Z,56.30
2018-03-19T21:42:12.794Z,56.20
2018-03-19T21:44:41.492Z,56.60
2018-03-19T21:47:12.909Z,56.60
2018-03-19T21:49:46.032Z,56.70
2018-03-19T21:52:16.446Z,56.50
2018-03-19T21:54:44.337Z,57.30
2018-03-19T21:57:12.331Z,57.90
2018-03-19T21:59:40.691Z,57.80
2018-03-19T22:02:07.817Z,58.10
2018-03-19T22:04:35.188Z,58.00
2018-03-19T22:07:01.673Z,58.00
2018-03-19T22:09:28.118Z,58.30
2018-03-19T22:11:54.826Z,59.20
2018-03-19T22:14:21.862Z,58.10
2018-03-19T22:16:48.222Z,58.00
2018-03-19T22:19:14.801Z,58.20
2018-03-19T22:21:44.696Z,58.50
2018-03-19T22:24:16.416Z,58.90
2018-03-19T22:26:44.038Z,59.60
2018-03-19T22:29:10.696Z,59.50
2018-03-19T22:31:37.895Z,60.10
2018-03-19T22:34:04.252Z,60.10
2018-03-19T22:36:30.592Z,60.30
2018-03-19T22:38:57.960Z,60.60
2018-03-19T22:41:24.339Z,60.90
2018-03-19T22:43:50.622Z,61.10
2018-03-19T22:46:17.570Z,61.70
2018-03-19T22:48:44.485Z,61.70
2018-03-19T22:51:11.415Z,61.80
2018-03-19T22:53:44.308Z,61.40
2018-03-19T22:56:10.808Z,61.40
2018-03-19T22:58:37.282Z,61.10
2018-03-19T23:01:03.645Z,60.70
2018-03-19T23:03:29.904Z,60.30
2018-03-19T23:05:56.118Z,60.20
2018-03-19T23:08:22.396Z,60.50
2018-03-19T23:10:49.480Z,60.70
2018-03-19T23:13:15.811Z,61.30
2018-03-19T23:15:42.190Z,60.90
2018-03-19T23:18:11.597Z,60.90
2018-03-19T23:20:38.562Z,60.30
2018-03-19T23:23:04.885Z,60.20
2018-03-19T23:25:31.127Z,60.10
2018-03-19T23:27:58.533Z,60.00
2018-03-19T23:30:24.838Z,59.90
2018-03-19T23:32:51.070Z,59.60
2018-03-19T23:35:17.307Z,59.40
2018-03-19T23:37:43.644Z,59.50
2018-03-19T23:40:11.745Z,59.60
2018-03-19T23:42:38.015Z,59.70
2018-03-19T23:45:05.016Z,60.60
2018-03-19T23:47:31.274Z,60.50
2018-03-19T23:49:57.513Z,59.70
2018-03-19T23:52:23.737Z,60.20
2018-03-19T23:54:49.981Z,59.60
2018-03-19T23:57:16.193Z,59.40
2018-03-19T23:59:42.656Z,59.70
